Estación Meteorológica Peña el Pijo (Robertgarden) [ 01/30/23 14:17:49 CET ]

Fecha Hora Presion(HPa) Temp (°C) Humedad % Rocio (°C) Viento ( m/s) Direccion Lluvia 1Hora(mm) Lluvia 24H(mm) LLuvia Total(mm)
2012-Nov-10 01:01:12 1005.100 5.8 95 5.0         178.19
2012-Nov-10 02:01:47 1004.700 6.1 95 5.3         178.19
2012-Nov-10 03:05:18 1004.400 6.1 95 5.3         178.19
2012-Nov-10 04:01:16 1004.000 5.1 95 4.3         178.19
2012-Nov-10 05:01:17 1003.900 4.6 95 3.9         178.19
2012-Nov-10 06:01:13 1003.700 4.2 95 3.5         178.19
2012-Nov-10 07:01:12 1004.200 3.2 95 2.5         178.19
2012-Nov-10 08:01:17 1004.300 2.9 95 2.1         178.19
2012-Nov-10 09:01:14 1004.800 4.9 96 4.3         178.19
2012-Nov-10 10:01:15 1005.000 7.4 96 6.8         178.19
2012-Nov-10 11:01:12 1004.800 8.9 94 8.0         178.19
2012-Nov-10 12:01:19 1004.400 12.1 76 8.0         178.19
2012-Nov-10 13:01:13 1003.500 11.2 70 6.0         178.19
2012-Nov-10 14:01:14 1002.800 11.0 67 5.1         178.19
2012-Nov-10 15:01:17 1002.500 12.4 63 5.5         178.19
2012-Nov-10 16:01:14 1002.100 11.4 66 5.2         178.19
2012-Nov-10 17:01:14 1002.200 10.4 66 4.3         178.19
2012-Nov-10 18:01:14 1002.300 9.2 70 4.0         178.19
2012-Nov-10 19:01:13 1003.200 7.5 77 3.7         178.19
2012-Nov-10 20:01:12 1003.600 6.6 83 3.9         178.19
2012-Nov-10 21:01:14 1003.500 6.3 87 4.3         178.19
2012-Nov-10 22:01:14 1003.100 5.9 89 4.2         178.19
2012-Nov-10 23:01:17 1002.500 5.4 90 3.9         178.19

Temperatura Máxima:12°    Temperatura Mínima:
Presión Máxima:1005.100 Hpa    Presión Mínima:1002.100 Hpa


Volver